Time;durP1;ratioP1;P1;durP2;ratioP2;P2;SDS_P1;SDS_P2;PMS_P1;PMS_P2;Temp;Humidity;BMP_temperature;BMP_pressure;BME280_temperature;BME280_humidity;BME280_pressure;Samples;Min_cycle;Max_cycle;Signal;HPM_P1;HPM_P2
2022/07/03 04:02:09;;;;;;;4.10;4.07;;;18.10;99.90;;;;;;5182848;23;20554;-68
2022/07/03 04:04:36;;;;;;;3.93;3.93;;;18.00;99.90;;;;;;4971722;28;20588;-67
2022/07/03 04:07:03;;;;;;;3.53;3.43;;;18.00;99.90;;;;;;4971596;28;20471;-66
2022/07/03 04:09:29;;;;;;;4.00;3.80;;;18.00;99.90;;;;;;4971817;28;20478;-67
2022/07/03 04:11:56;;;;;;;4.00;3.90;;;17.90;99.90;;;;;;4970823;28;21023;-67
2022/07/03 04:14:23;;;;;;;4.40;4.30;;;17.90;99.90;;;;;;4971801;28;20471;-67
2022/07/03 04:16:50;;;;;;;4.00;3.80;;;17.90;99.90;;;;;;4994324;23;21064;-67
2022/07/03 04:19:18;;;;;;;4.23;3.83;;;17.90;99.90;;;;;;4971613;28;21072;-68
2022/07/03 04:21:45;;;;;;;3.93;3.83;;;17.90;99.90;;;;;;4971331;28;20456;-68
2022/07/03 04:24:11;;;;;;;4.27;4.20;;;18.00;99.90;;;;;;4971690;28;20547;-68
2022/07/03 04:26:38;;;;;;;3.63;3.40;;;18.00;99.90;;;;;;4976557;28;20495;-68
2022/07/03 04:29:05;;;;;;;3.93;3.73;;;18.50;99.90;;;;;;4978018;28;20665;-68
2022/07/03 04:31:31;;;;;;;3.30;3.20;;;19.30;99.90;;;;;;4977019;28;20467;-68
2022/07/03 04:33:58;;;;;;;3.07;2.97;;;20.20;99.90;;;;;;4978233;28;20482;-68
2022/07/03 04:36:26;;;;;;;2.90;2.90;;;21.10;99.90;;;;;;4977922;28;20495;-68
2022/07/03 04:38:53;;;;;;;2.80;2.80;;;21.80;99.90;;;;;;4978146;28;20467;-68
2022/07/03 04:41:19;;;;;;;2.87;2.87;;;22.30;99.90;;;;;;4974630;28;20468;-68
2022/07/03 04:43:46;;;;;;;2.83;2.83;;;22.80;99.90;;;;;;4977768;28;20995;-68
2022/07/03 04:46:13;;;;;;;2.77;2.77;;;23.20;99.90;;;;;;4977483;28;20487;-68
2022/07/03 04:48:40;;;;;;;3.00;3.00;;;23.50;99.90;;;;;;4977674;28;20470;-68
2022/07/03 04:51:06;;;;;;;2.40;2.40;;;23.80;99.90;;;;;;4977721;28;20469;-68
2022/07/03 04:53:35;;;;;;;2.70;2.67;;;24.40;99.90;;;;;;4978023;28;20472;-68
2022/07/03 04:56:01;;;;;;;2.70;2.60;;;24.50;99.90;;;;;;4979102;28;20520;-68
2022/07/03 04:58:28;;;;;;;2.60;2.50;;;24.90;99.90;;;;;;4978318;28;20467;-68
2022/07/03 05:00:55;;;;;;;2.40;2.40;;;25.10;99.90;;;;;;4977494;28;20465;-68
2022/07/03 05:03:22;;;;;;;2.80;2.80;;;25.10;99.00;;;;;;4977811;28;20470;-68
2022/07/03 05:05:48;;;;;;;2.40;2.40;;;25.10;98.80;;;;;;4977446;28;20499;-68
2022/07/03 05:08:15;;;;;;;2.80;2.80;;;24.90;99.10;;;;;;4977707;28;20475;-68
2022/07/03 05:10:43;;;;;;;2.70;2.70;;;25.10;98.80;;;;;;4977097;28;20465;-67
2022/07/03 05:13:10;;;;;;;2.40;2.40;;;25.10;98.30;;;;;;4977432;28;20465;-67
2022/07/03 05:15:36;;;;;;;2.67;2.67;;;24.90;98.40;;;;;;4976762;28;20469;-67
2022/07/03 05:18:03;;;;;;;2.83;2.77;;;25.20;98.60;;;;;;4977472;28;20464;-67
2022/07/03 05:20:30;;;;;;;2.93;2.93;;;25.20;98.30;;;;;;4977167;28;20469;-67
2022/07/03 05:22:59;;;;;;;2.83;2.73;;;25.40;98.30;;;;;;4977271;28;20466;-68
2022/07/03 05:25:26;;;;;;;2.73;2.73;;;25.60;98.10;;;;;;4976588;28;20494;-68
2022/07/03 05:27:55;;;;;;;2.40;2.40;;;25.70;97.10;;;;;;4977693;28;20462;-68
2022/07/03 05:30:23;;;;;;;3.00;2.67;;;26.00;96.80;;;;;;4968962;28;20467;-67
2022/07/03 05:32:50;;;;;;;2.87;2.80;;;26.00;96.60;;;;;;4977307;28;20460;-67
2022/07/03 05:35:17;;;;;;;2.40;2.40;;;26.30;96.20;;;;;;4977067;28;20463;-67
2022/07/03 05:37:43;;;;;;;3.03;2.93;;;26.20;95.80;;;;;;4973857;28;20493;-67
2022/07/03 05:40:11;;;;;;;2.33;2.23;;;26.00;96.00;;;;;;4973286;28;20475;-67
2022/07/03 05:42:38;;;;;;;2.80;2.80;;;25.60;96.50;;;;;;4974427;28;20475;-68
2022/07/03 05:45:07;;;;;;;2.67;2.67;;;25.60;96.20;;;;;;4973671;28;20502;-67
2022/07/03 05:47:34;;;;;;;2.70;2.60;;;26.00;96.30;;;;;;4974095;28;20508;-68
2022/07/03 05:50:01;;;;;;;2.30;2.30;;;26.50;95.80;;;;;;4973538;28;20790;-67
2022/07/03 05:52:27;;;;;;;4.07;2.57;;;27.10;95.50;;;;;;4973705;28;20950;-68
2022/07/03 05:54:54;;;;;;;2.60;2.60;;;27.20;94.00;;;;;;4973612;28;20459;-67
2022/07/03 05:57:21;;;;;;;2.97;2.97;;;26.80;94.30;;;;;;4973923;28;20484;-67
2022/07/03 05:59:48;;;;;;;2.33;2.33;;;26.60;94.80;;;;;;4971236;28;20476;-68
2022/07/03 06:02:17;;;;;;;2.60;2.60;;;26.80;94.40;;;;;;4969688;28;20471;-67
2022/07/03 06:04:44;;;;;;;2.70;2.70;;;26.90;94.40;;;;;;4973748;28;20515;-67
2022/07/03 06:07:10;;;;;;;2.43;2.33;;;26.90;94.20;;;;;;4973381;28;20837;-67
2022/07/03 06:09:37;;;;;;;2.60;2.60;;;27.20;94.00;;;;;;4973634;28;20838;-67
2022/07/03 06:12:04;;;;;;;2.30;2.30;;;27.40;94.10;;;;;;4973117;28;20469;-66
2022/07/03 06:14:31;;;;;;;2.70;2.70;;;27.70;93.40;;;;;;4973786;28;20476;-66
2022/07/03 06:16:58;;;;;;;2.50;2.50;;;28.10;93.10;;;;;;4972878;28;20500;-67
2022/07/03 06:19:26;;;;;;;2.63;2.63;;;28.20;92.60;;;;;;4973717;28;20471;-67
2022/07/03 06:21:53;;;;;;;2.90;2.90;;;28.40;91.90;;;;;;4973297;28;20506;-67
2022/07/03 06:24:19;;;;;;;2.37;2.37;;;28.00;92.20;;;;;;4973547;28;20494;-67
2022/07/03 06:26:46;;;;;;;2.70;2.70;;;27.60;92.40;;;;;;4973211;28;20493;-66
2022/07/03 06:29:12;;;;;;;2.50;2.40;;;27.50;93.20;;;;;;4973654;28;20516;-67
2022/07/03 06:31:39;;;;;;;2.80;2.80;;;27.70;93.30;;;;;;4972532;28;20837;-67
2022/07/03 06:34:06;;;;;;;3.00;3.00;;;27.90;92.80;;;;;;4973331;28;20480;-66
2022/07/03 06:36:34;;;;;;;2.73;2.73;;;27.80;92.60;;;;;;4972957;28;20495;-67
2022/07/03 06:39:00;;;;;;;2.80;2.60;;;28.30;93.00;;;;;;4973316;28;20822;-67
2022/07/03 06:41:27;;;;;;;2.90;2.80;;;29.20;92.00;;;;;;4972574;28;20820;-67
2022/07/03 06:43:54;;;;;;;2.27;2.27;;;30.00;90.80;;;;;;4973239;28;20488;-67
2022/07/03 06:46:20;;;;;;;2.60;2.60;;;30.10;90.20;;;;;;4972378;28;20516;-67
2022/07/03 06:48:47;;;;;;;2.43;2.43;;;30.30;89.20;;;;;;4972293;28;20462;-67
2022/07/03 06:51:14;;;;;;;2.30;2.30;;;30.20;89.10;;;;;;4969066;28;20567;-67
2022/07/03 06:53:42;;;;;;;2.20;2.20;;;30.20;89.00;;;;;;4973200;28;20459;-67
2022/07/03 06:56:08;;;;;;;2.20;2.20;;;30.70;88.80;;;;;;4973714;28;20483;-67
2022/07/03 06:58:35;;;;;;;2.80;2.70;;;30.40;86.40;;;;;;4973474;28;20471;-67
2022/07/03 07:01:02;;;;;;;2.17;2.17;;;30.80;87.00;;;;;;4972290;28;20467;-67
2022/07/03 07:03:29;;;;;;;2.00;2.00;;;31.40;85.60;;;;;;4972493;28;20965;-67
2022/07/03 07:05:55;;;;;;;1.97;1.97;;;31.80;84.40;;;;;;4972461;28;20495;-67
2022/07/03 07:08:22;;;;;;;2.03;2.03;;;32.10;83.50;;;;;;4972884;28;20768;-67
2022/07/03 07:10:50;;;;;;;2.20;2.20;;;32.10;81.90;;;;;;4972156;28;20467;-67
2022/07/03 07:13:16;;;;;;;2.33;2.23;;;32.20;82.30;;;;;;4972722;28;20471;-67
2022/07/03 07:15:43;;;;;;;1.97;1.97;;;32.40;82.10;;;;;;4971631;28;20491;-67
2022/07/03 07:18:10;;;;;;;2.50;2.40;;;32.10;80.40;;;;;;4972396;28;20952;-67
2022/07/03 07:20:36;;;;;;;2.00;2.00;;;32.00;81.40;;;;;;4972369;28;20474;-67
2022/07/03 07:23:03;;;;;;;2.20;2.20;;;32.00;79.90;;;;;;4972276;28;20467;-67
2022/07/03 07:25:30;;;;;;;2.00;2.00;;;32.30;81.00;;;;;;4971750;28;20487;-67
2022/07/03 07:27:58;;;;;;;3.13;2.00;;;32.40;79.40;;;;;;4972549;28;20467;-67
2022/07/03 07:30:24;;;;;;;2.10;2.10;;;32.50;79.30;;;;;;4963948;28;20468;-67
2022/07/03 07:32:51;;;;;;;2.30;2.30;;;32.60;79.10;;;;;;4972235;28;20467;-67
2022/07/03 07:35:18;;;;;;;2.10;2.10;;;33.00;78.20;;;;;;4972337;28;20467;-66
2022/07/03 07:37:45;;;;;;;1.90;1.90;;;33.10;77.40;;;;;;4972082;28;20602;-66
2022/07/03 07:40:12;;;;;;;2.43;2.30;;;33.30;76.40;;;;;;4971622;28;20900;-66
2022/07/03 07:42:39;;;;;;;2.13;2.13;;;33.60;76.30;;;;;;4972201;28;20467;-66
2022/07/03 07:45:09;;;;;;;1.83;1.83;;;33.50;73.20;;;;;;4971453;28;20491;-66
2022/07/03 07:47:35;;;;;;;1.80;1.70;;;33.40;73.60;;;;;;4972431;28;20496;-66
2022/07/03 07:50:03;;;;;;;1.70;1.70;;;33.60;73.20;;;;;;4971906;28;20474;-66
2022/07/03 07:52:29;;;;;;;1.90;1.80;;;33.30;71.50;;;;;;4972115;28;20460;-66
2022/07/03 07:54:56;;;;;;;2.03;2.03;;;33.40;71.90;;;;;;4971081;28;20952;-66
2022/07/03 07:57:23;;;;;;;1.80;1.80;;;33.40;70.60;;;;;;4971942;28;20499;-66
2022/07/03 07:59:49;;;;;;;1.63;1.63;;;33.00;70.90;;;;;;4968290;28;20460;-67
2022/07/03 08:07:45;;;;;;;1.60;1.60;;;32.40;72.50;;;;;;4971796;28;20649;-66
2022/07/03 08:10:12;;;;;;;2.27;2.10;;;32.60;72.50;;;;;;4970896;28;20467;-66
2022/07/03 08:12:39;;;;;;;2.03;2.03;;;32.70;71.30;;;;;;4972123;28;20464;-66
2022/07/03 08:15:06;;;;;;;2.00;2.00;;;32.40;73.00;;;;;;4971383;28;20464;-66
2022/07/03 08:17:34;;;;;;;2.40;2.30;;;32.40;71.80;;;;;;4971681;28;20810;-66
2022/07/03 08:20:01;;;;;;;1.90;1.90;;;32.70;71.70;;;;;;4971343;28;20467;-66
2022/07/03 08:22:28;;;;;;;1.67;1.67;;;32.90;71.10;;;;;;4971621;28;20478;-66
2022/07/03 08:24:54;;;;;;;2.23;1.80;;;33.00;69.70;;;;;;4971281;28;20491;-66
2022/07/03 08:27:21;;;;;;;1.43;1.43;;;33.00;69.30;;;;;;4971665;28;20491;-66
2022/07/03 08:29:48;;;;;;;1.40;1.40;;;33.10;69.50;;;;;;4971437;28;20467;-66
2022/07/03 08:32:15;;;;;;;2.23;2.23;;;33.10;69.00;;;;;;4971698;28;20468;-66
2022/07/03 08:34:43;;;;;;;1.93;1.93;;;33.30;69.10;;;;;;4972035;28;20801;-66
2022/07/03 08:37:09;;;;;;;1.70;1.70;;;33.20;68.70;;;;;;4971522;28;20908;-66
2022/07/03 08:39:36;;;;;;;1.80;1.80;;;32.90;68.80;;;;;;4971863;28;20479;-67
2022/07/03 08:42:04;;;;;;;1.70;1.70;;;32.90;67.90;;;;;;4971505;28;20472;-66
2022/07/03 08:44:31;;;;;;;1.80;1.80;;;32.90;67.30;;;;;;4972343;28;20470;-66
2022/07/03 08:47:01;;;;;;;1.97;1.87;;;32.90;68.10;;;;;;4971111;28;20497;-66
2022/07/03 08:49:29;;;;;;;1.90;1.90;;;32.80;67.80;;;;;;4968133;28;20468;-66
2022/07/03 08:51:58;;;;;;;1.60;1.60;;;32.50;68.40;;;;;;4971138;28;20468;-66
2022/07/03 08:54:25;;;;;;;1.90;1.90;;;32.40;68.90;;;;;;4971392;28;20578;-66
2022/07/03 08:56:52;;;;;;;1.63;1.63;;;32.20;70.00;;;;;;4970933;28;20980;-66
2022/07/03 08:59:20;;;;;;;2.00;1.80;;;32.40;70.80;;;;;;4971594;28;20476;-66
2022/07/03 09:01:48;;;;;;;1.50;1.50;;;32.40;69.60;;;;;;4970708;28;20475;-66
2022/07/03 09:04:14;;;;;;;2.07;2.07;;;32.20;68.60;;;;;;4971356;28;20988;-66
2022/07/03 09:06:42;;;;;;;2.20;2.07;;;32.20;69.10;;;;;;4971175;28;20499;-66
2022/07/03 09:09:11;;;;;;;1.90;1.90;;;32.20;69.40;;;;;;4971619;28;20829;-66
2022/07/03 09:11:38;;;;;;;1.80;1.80;;;32.00;68.60;;;;;;4971941;28;20471;-66
2022/07/03 09:14:06;;;;;;;2.10;2.10;;;31.50;69.90;;;;;;4975005;28;20469;-66
2022/07/03 09:16:35;;;;;;;1.80;1.80;;;31.40;70.70;;;;;;4974421;28;20491;-66
2022/07/03 09:19:02;;;;;;;1.83;1.83;;;31.40;71.20;;;;;;4975062;28;20475;-66
2022/07/03 09:21:36;;;;;;;2.13;2.13;;;31.50;71.20;;;;;;4974880;28;20471;-66
2022/07/03 09:24:04;;;;;;;1.90;1.90;;;31.40;70.30;;;;;;4975147;28;20881;-66
2022/07/03 09:26:33;;;;;;;1.90;1.90;;;31.20;71.40;;;;;;4974676;28;20526;-67
2022/07/03 09:29:00;;;;;;;2.23;2.13;;;31.10;70.20;;;;;;4974975;28;20819;-66
2022/07/03 09:31:29;;;;;;;2.30;2.30;;;30.50;70.70;;;;;;4966373;28;20477;-66
2022/07/03 09:33:57;;;;;;;2.20;2.20;;;30.10;72.00;;;;;;4974720;28;20950;-66
2022/07/03 09:36:38;;;;;;;2.20;2.20;;;29.90;73.40;;;;;;4974409;28;20494;-66
2022/07/03 09:39:14;;;;;;;2.47;2.47;;;29.70;74.20;;;;;;4975217;28;20502;-66
2022/07/03 09:41:54;;;;;;;2.20;2.20;;;29.50;75.30;;;;;;4974401;28;20466;-67
2022/07/03 09:44:36;;;;;;;2.77;2.67;;;29.30;75.40;;;;;;4974593;28;20965;-66
2022/07/03 09:47:13;;;;;;;3.00;2.90;;;29.30;76.20;;;;;;4972348;28;20502;-67
2022/07/03 09:49:52;;;;;;;3.07;2.97;;;29.20;76.80;;;;;;4974650;28;20476;-66
2022/07/03 09:52:33;;;;;;;2.30;2.30;;;29.10;78.60;;;;;;4974320;28;20530;-66
2022/07/03 09:55:01;;;;;;;2.80;2.60;;;29.10;77.90;;;;;;4974003;28;20474;-66
2022/07/03 09:57:30;;;;;;;2.70;2.70;;;29.00;77.40;;;;;;4974337;28;20636;-66
2022/07/03 10:00:12;;;;;;;2.83;2.83;;;28.90;77.90;;;;;;4973666;28;20614;-66
2022/07/03 10:02:56;;;;;;;2.70;2.70;;;29.00;78.30;;;;;;4974415;28;20469;-65
2022/07/03 10:05:24;;;;;;;2.90;2.80;;;28.80;79.20;;;;;;4974191;28;20499;-66
2022/07/03 10:07:52;;;;;;;2.83;2.83;;;28.80;80.70;;;;;;4974268;28;20477;-67
2022/07/03 10:10:20;;;;;;;2.80;2.80;;;28.60;80.30;;;;;;4973497;28;20829;-66
2022/07/03 10:12:50;;;;;;;3.63;3.33;;;28.40;81.40;;;;;;4974078;28;20573;-66
2022/07/03 10:15:17;;;;;;;2.40;2.40;;;28.30;82.00;;;;;;4973423;28;20899;-66
2022/07/03 10:17:46;;;;;;;3.10;3.10;;;28.20;81.80;;;;;;4987623;23;20501;-66
2022/07/03 10:20:15;;;;;;;2.90;2.90;;;28.30;82.50;;;;;;4968113;28;20471;-68
2022/07/03 10:22:46;;;;;;;2.10;2.10;;;28.40;82.40;;;;;;4972999;28;20471;-67
2022/07/03 10:25:14;;;;;;;2.50;2.50;;;28.30;82.40;;;;;;4973409;28;20481;-67
2022/07/03 10:27:40;;;;;;;3.00;2.90;;;28.10;83.00;;;;;;4973506;28;20492;-67
2022/07/03 10:30:10;;;;;;;3.00;2.83;;;28.00;82.90;;;;;;4973044;28;20469;-67
2022/07/03 10:32:38;;;;;;;2.90;2.90;;;28.10;83.60;;;;;;4973838;28;20823;-67
2022/07/03 10:35:07;;;;;;;3.10;3.00;;;28.10;82.60;;;;;;4973719;28;20813;-67
2022/07/03 10:37:44;;;;;;;3.20;3.10;;;28.20;82.20;;;;;;4973665;28;20490;-67
2022/07/03 10:46:15;;;;;;;2.80;2.80;;;28.40;81.20;;;;;;4973155;28;20615;-67
2022/07/03 10:48:59;;;;;;;2.70;2.70;;;28.20;80.40;;;;;;4973759;28;21208;-67
2022/07/03 10:51:27;;;;;;;2.73;2.70;;;28.10;80.40;;;;;;4959638;28;20828;-67
2022/07/03 10:54:16;;;;;;;2.60;2.60;;;27.90;81.80;;;;;;4954119;28;20570;-68
2022/07/03 10:57:05;;;;;;;2.87;2.87;;;27.80;82.20;;;;;;4953811;28;20972;-67
2022/07/03 11:00:09;;;;;;;2.70;2.60;;;27.80;81.90;;;;;;4956642;28;20477;-67
2022/07/03 11:02:40;;;;;;;2.50;2.33;;;27.90;82.40;;;;;;4958877;29;20981;-67
2022/07/03 11:05:23;;;;;;;2.50;2.50;;;27.80;81.90;;;;;;4961510;28;20468;-67
2022/07/03 11:08:11;;;;;;;2.93;2.93;;;27.90;82.30;;;;;;4954335;28;20486;-67
2022/07/03 11:10:43;;;;;;;3.17;3.17;;;28.10;83.50;;;;;;4953040;28;20977;-67
2022/07/03 11:13:20;;;;;;;2.50;2.50;;;28.30;82.30;;;;;;4953856;28;20469;-67
2022/07/03 11:15:49;;;;;;;2.57;2.57;;;28.50;82.60;;;;;;4953370;28;20464;-67
2022/07/03 11:18:25;;;;;;;3.00;3.00;;;28.60;82.90;;;;;;4953319;28;20506;-67
2022/07/03 11:21:28;;;;;;;2.40;2.40;;;28.70;81.70;;;;;;4953361;28;20470;-67
2022/07/03 11:24:17;;;;;;;2.60;2.60;;;28.60;82.00;;;;;;4953109;28;20489;-67
2022/07/03 11:26:44;;;;;;;2.93;2.93;;;28.40;80.60;;;;;;4952994;28;20496;-66
2022/07/03 11:29:27;;;;;;;2.93;2.83;;;28.00;81.60;;;;;;4953434;28;20982;-67
2022/07/03 11:31:54;;;;;;;2.63;2.60;;;28.10;82.70;;;;;;4952615;28;20481;-66
2022/07/03 11:34:22;;;;;;;2.47;2.47;;;28.30;83.20;;;;;;4953304;28;20476;-67
2022/07/03 11:36:49;;;;;;;2.70;2.70;;;28.40;82.80;;;;;;4953310;28;20483;-66
2022/07/03 11:39:20;;;;;;;2.67;2.67;;;28.30;82.10;;;;;;4959176;28;20465;-66
2022/07/03 11:41:47;;;;;;;2.90;2.80;;;28.30;82.70;;;;;;4945254;29;20477;-66
2022/07/03 11:44:21;;;;;;;2.97;2.87;;;28.30;81.70;;;;;;4953131;28;20465;-66
2022/07/03 11:46:52;;;;;;;2.70;2.67;;;28.30;81.10;;;;;;4952371;28;20501;-66
2022/07/03 11:49:24;;;;;;;2.90;2.90;;;28.10;81.10;;;;;;4953220;28;20472;-67
2022/07/03 11:51:59;;;;;;;2.60;2.60;;;28.00;82.10;;;;;;4953000;28;20464;-67
2022/07/03 11:54:26;;;;;;;2.90;2.90;;;27.80;82.90;;;;;;4952759;28;20469;-67
2022/07/03 11:56:53;;;;;;;2.70;2.70;;;27.80;81.50;;;;;;4952029;28;20569;-68
2022/07/03 11:59:20;;;;;;;2.53;2.53;;;27.80;82.10;;;;;;4952891;28;20834;-67
2022/07/03 12:01:47;;;;;;;2.00;1.90;;;27.80;81.20;;;;;;4952330;28;20842;-66
2022/07/03 12:04:20;;;;;;;2.47;2.40;;;27.80;80.50;;;;;;4952862;29;20474;-67
2022/07/03 12:06:50;;;;;;;2.40;2.30;;;27.70;80.60;;;;;;4952682;28;20814;-67
2022/07/03 12:09:19;;;;;;;2.40;2.20;;;27.70;81.60;;;;;;4952870;28;20501;-67
2022/07/03 12:11:54;;;;;;;2.00;2.00;;;27.60;81.20;;;;;;4951908;28;20471;-66
2022/07/03 12:14:38;;;;;;;2.40;2.40;;;27.70;81.30;;;;;;4953155;28;20464;-66
2022/07/03 12:17:06;;;;;;;2.10;2.10;;;27.70;81.40;;;;;;4952159;28;20952;-66
2022/07/03 12:19:33;;;;;;;2.13;2.10;;;27.70;82.70;;;;;;4947146;28;20466;-67
2022/07/03 12:22:01;;;;;;;2.10;1.93;;;27.80;79.90;;;;;;4951961;28;20468;-67
2022/07/03 12:24:28;;;;;;;1.97;1.90;;;27.70;78.20;;;;;;4952594;28;20474;-68
2022/07/03 12:26:54;;;;;;;2.00;2.00;;;27.60;78.20;;;;;;4952573;28;20865;-66
2022/07/03 12:29:22;;;;;;;2.03;1.93;;;27.60;79.70;;;;;;4952992;28;20472;-67
2022/07/03 12:31:50;;;;;;;2.47;2.30;;;27.80;79.50;;;;;;4952145;28;20489;-67
2022/07/03 12:34:17;;;;;;;1.80;1.70;;;28.00;79.90;;;;;;4952565;28;20465;-67
2022/07/03 12:36:56;;;;;;;1.70;1.70;;;28.00;77.60;;;;;;4952224;28;20481;-67
2022/07/03 12:39:24;;;;;;;2.20;2.10;;;28.10;77.80;;;;;;4952518;28;20476;-67
2022/07/03 12:41:51;;;;;;;2.00;1.90;;;28.10;77.50;;;;;;4951875;28;20795;-66
2022/07/03 12:44:20;;;;;;;1.77;1.77;;;28.00;76.60;;;;;;4952560;28;20492;-66
2022/07/03 12:46:49;;;;;;;1.57;1.57;;;28.10;77.20;;;;;;4953308;28;20496;-66
2022/07/03 12:49:16;;;;;;;2.47;2.23;;;28.00;76.90;;;;;;4956062;28;20468;-68
2022/07/03 12:51:45;;;;;;;1.80;1.70;;;28.10;77.10;;;;;;4956041;28;20466;-67
2022/07/03 12:54:13;;;;;;;1.80;1.80;;;28.20;76.80;;;;;;4955901;28;20470;-67
2022/07/03 12:56:42;;;;;;;1.80;1.80;;;28.10;76.20;;;;;;4955578;28;20495;-67
2022/07/03 12:59:24;;;;;;;2.37;2.17;;;28.20;77.70;;;;;;4956062;28;20902;-67
2022/07/03 13:02:02;;;;;;;2.20;2.10;;;28.30;78.30;;;;;;4955328;28;20485;-67
2022/07/03 13:04:34;;;;;;;1.77;1.67;;;28.50;76.90;;;;;;4956310;28;20468;-68
2022/07/03 13:07:01;;;;;;;2.03;1.93;;;28.50;77.10;;;;;;4955821;28;20489;-66
2022/07/03 13:09:28;;;;;;;1.80;1.80;;;28.60;76.70;;;;;;4963169;28;20492;-66
2022/07/03 13:11:56;;;;;;;1.70;1.70;;;28.40;76.80;;;;;;4974380;28;20803;-66
2022/07/03 13:14:24;;;;;;;2.00;2.00;;;28.40;77.10;;;;;;4975266;28;20583;-66
2022/07/03 13:16:53;;;;;;;2.20;2.10;;;28.50;76.30;;;;;;4974360;28;20900;-67
2022/07/03 13:19:21;;;;;;;1.60;1.60;;;28.60;77.60;;;;;;4975113;28;20936;-67
2022/07/03 13:21:49;;;;;;;1.60;1.60;;;28.80;77.40;;;;;;4974327;28;20472;-66
2022/07/03 13:24:16;;;;;;;1.73;1.63;;;28.70;75.40;;;;;;4974779;28;20475;-67
2022/07/03 13:26:44;;;;;;;1.50;1.50;;;28.60;75.90;;;;;;4974221;28;20831;-67
2022/07/03 13:29:12;;;;;;;1.70;1.70;;;28.40;76.00;;;;;;4975133;28;20844;-67
2022/07/03 13:31:39;;;;;;;1.77;1.73;;;28.30;76.10;;;;;;4973853;28;20588;-67
2022/07/03 13:34:06;;;;;;;1.83;1.80;;;28.10;75.70;;;;;;4974684;28;21292;-66
2022/07/03 13:36:33;;;;;;;1.73;1.70;;;28.30;76.20;;;;;;4974536;28;20512;-66
2022/07/03 13:39:00;;;;;;;1.70;1.70;;;28.60;75.60;;;;;;4971521;28;20833;-67
2022/07/03 13:41:28;;;;;;;1.80;1.73;;;28.80;75.30;;;;;;4964913;28;20474;-66
2022/07/03 13:43:55;;;;;;;1.70;1.60;;;28.90;75.80;;;;;;4955413;28;20471;-66
2022/07/03 13:46:24;;;;;;;1.37;1.37;;;29.10;73.40;;;;;;4954599;28;20491;-67
2022/07/03 13:48:51;;;;;;;1.90;1.80;;;29.20;72.90;;;;;;4955152;28;21025;-67
2022/07/03 13:51:18;;;;;;;1.70;1.70;;;29.20;73.10;;;;;;4954864;28;20477;-66
2022/07/03 13:53:45;;;;;;;2.00;2.00;;;29.00;73.70;;;;;;4954837;28;20472;-66
2022/07/03 13:56:12;;;;;;;2.30;2.10;;;28.70;74.10;;;;;;4954443;28;20518;-66
2022/07/03 13:58:39;;;;;;;1.97;1.87;;;28.40;74.70;;;;;;4954227;28;20472;-67
2022/07/03 14:01:06;;;;;;;1.63;1.63;;;28.20;75.60;;;;;;4954232;28;20465;-67
2022/07/03 14:03:34;;;;;;;2.37;2.27;;;28.20;75.30;;;;;;4954693;28;20477;-66
2022/07/03 14:06:01;;;;;;;1.70;1.70;;;28.20;75.70;;;;;;4954706;28;20469;-68
2022/07/03 14:08:27;;;;;;;2.50;2.50;;;28.50;76.90;;;;;;4954640;28;21015;-66
2022/07/03 14:10:54;;;;;;;1.80;1.80;;;28.50;75.40;;;;;;4953963;28;20981;-67
2022/07/03 14:13:20;;;;;;;2.07;1.97;;;28.60;75.10;;;;;;4954711;28;20469;-67
2022/07/03 14:15:47;;;;;;;1.90;1.90;;;28.60;75.10;;;;;;4954198;28;20822;-66
2022/07/03 14:18:14;;;;;;;1.90;1.90;;;28.50;75.20;;;;;;4954558;28;20493;-68
2022/07/03 14:20:42;;;;;;;1.97;1.70;;;28.30;74.80;;;;;;4954296;28;20475;-68
2022/07/03 14:23:08;;;;;;;1.50;1.50;;;28.10;75.50;;;;;;4953997;28;20483;-67
2022/07/03 14:25:36;;;;;;;3.03;1.93;;;28.20;75.20;;;;;;4954026;28;20471;-67
2022/07/03 14:33:32;;;;;;;1.90;1.80;;;29.00;75.40;;;;;;4955040;29;20822;-66
2022/07/03 14:36:00;;;;;;;1.67;1.63;;;29.40;74.40;;;;;;4954884;28;20489;-67
2022/07/03 14:38:27;;;;;;;2.00;2.00;;;29.60;74.20;;;;;;4954842;28;20463;-67
2022/07/03 14:40:53;;;;;;;1.80;1.70;;;29.90;73.90;;;;;;4954041;28;20467;-67
2022/07/03 14:43:20;;;;;;;1.37;1.37;;;30.00;72.40;;;;;;4954432;28;20466;-66
2022/07/03 14:45:47;;;;;;;2.30;2.10;;;30.20;73.30;;;;;;4953886;28;20844;-67
2022/07/03 14:48:13;;;;;;;1.80;1.80;;;30.30;72.20;;;;;;4953911;28;20512;-66
2022/07/03 14:50:40;;;;;;;1.70;1.70;;;30.30;70.60;;;;;;4954107;28;20886;-65
2022/07/03 14:53:09;;;;;;;1.80;1.80;;;30.10;71.10;;;;;;4953447;28;20479;-66
2022/07/03 14:55:39;;;;;;;2.63;1.70;;;30.10;71.40;;;;;;4953663;28;20844;-66
2022/07/03 14:58:15;;;;;;;1.97;1.60;;;30.10;70.50;;;;;;4954025;28;20501;-66
2022/07/03 15:00:46;;;;;;;1.80;1.80;;;30.00;70.50;;;;;;4953590;28;20523;-66
2022/07/03 15:03:17;;;;;;;1.60;1.60;;;29.90;70.60;;;;;;4954456;28;20477;-65
2022/07/03 15:05:45;;;;;;;2.33;2.10;;;30.00;71.20;;;;;;4953730;28;20468;-66
2022/07/03 15:08:25;;;;;;;1.73;1.73;;;30.10;69.90;;;;;;4953156;28;20526;-65
2022/07/03 15:10:54;;;;;;;2.23;2.17;;;30.10;70.40;;;;;;4946622;29;20492;-65
2022/07/03 15:13:21;;;;;;;1.70;1.70;;;29.90;70.10;;;;;;4955688;28;20471;-67
2022/07/03 15:15:49;;;;;;;1.60;1.60;;;30.00;70.40;;;;;;4957228;28;20470;-66
2022/07/03 15:18:20;;;;;;;2.20;2.10;;;29.90;69.90;;;;;;4958263;28;20951;-67
2022/07/03 15:20:50;;;;;;;1.83;1.67;;;30.00;71.20;;;;;;4953821;28;20538;-66
2022/07/03 15:23:20;;;;;;;1.83;1.70;;;30.20;70.70;;;;;;4953070;28;20563;-68
2022/07/03 15:25:48;;;;;;;2.70;1.60;;;30.30;69.90;;;;;;4953038;28;20825;-65
2022/07/03 15:28:16;;;;;;;1.70;1.60;;;29.90;69.40;;;;;;4952968;28;21007;-66
2022/07/03 15:30:48;;;;;;;2.20;1.70;;;29.90;69.90;;;;;;4952940;28;20525;-66
2022/07/03 15:33:15;;;;;;;1.70;1.70;;;29.90;68.80;;;;;;4953179;28;20509;-67
2022/07/03 15:35:46;;;;;;;1.40;1.40;;;30.10;69.70;;;;;;4952848;28;20470;-67
2022/07/03 15:38:14;;;;;;;2.03;1.80;;;30.30;69.00;;;;;;4952256;28;20489;-66
2022/07/03 15:40:48;;;;;;;1.60;1.50;;;30.30;68.60;;;;;;4971172;28;20470;-66
2022/07/03 15:43:42;;;;;;;1.50;1.50;;;30.30;67.40;;;;;;4972391;28;20512;-66
2022/07/03 15:46:19;;;;;;;1.70;1.70;;;30.40;67.30;;;;;;4971847;28;20479;-68
2022/07/03 15:48:54;;;;;;;3.60;3.40;;;30.30;67.70;;;;;;4937999;29;20473;-67
2022/07/03 15:51:25;;;;;;;1.97;1.60;;;30.00;68.40;;;;;;4933291;29;20518;-68
2022/07/03 15:53:56;;;;;;;1.40;1.37;;;29.70;71.60;;;;;;4953062;28;20520;-67
2022/07/03 15:56:30;;;;;;;1.77;1.67;;;29.50;74.10;;;;;;4952130;29;20490;-67
2022/07/03 15:59:02;;;;;;;1.80;1.70;;;29.20;77.00;;;;;;4933298;29;20481;-67
2022/07/03 16:04:27;;;;;;;1.57;1.57;;;29.00;75.60;;;;;;4933038;28;20808;-66
2022/07/03 16:06:55;;;;;;;2.53;2.43;;;28.80;74.50;;;;;;4954567;28;20495;-67
2022/07/03 16:09:22;;;;;;;2.13;1.77;;;28.70;74.20;;;;;;4952408;28;20498;-67
2022/07/03 16:11:51;;;;;;;1.50;1.50;;;28.50;73.40;;;;;;4963377;28;20459;-67
2022/07/03 16:14:20;;;;;;;2.73;2.53;;;28.40;76.20;;;;;;4972191;28;20467;-67
2022/07/03 16:16:47;;;;;;;1.67;1.67;;;28.20;74.70;;;;;;4951857;28;20503;-66
2022/07/03 16:19:14;;;;;;;1.53;1.53;;;28.10;75.20;;;;;;4960762;28;20470;-67
2022/07/03 16:21:41;;;;;;;1.70;1.70;;;28.10;74.60;;;;;;4951169;28;20929;-67
2022/07/03 16:24:10;;;;;;;1.90;1.80;;;28.00;75.50;;;;;;4953736;28;20463;-65
2022/07/03 16:26:37;;;;;;;1.70;1.60;;;27.90;73.30;;;;;;4954621;28;21078;-66
2022/07/03 16:29:06;;;;;;;1.43;1.43;;;28.00;74.70;;;;;;4945225;28;20524;-66
2022/07/03 16:31:37;;;;;;;1.50;1.50;;;28.20;72.00;;;;;;4959571;28;20549;-66
2022/07/03 16:34:10;;;;;;;1.30;1.30;;;28.40;70.40;;;;;;4954136;28;20557;-68
2022/07/03 16:36:41;;;;;;;2.27;1.53;;;28.60;70.20;;;;;;4963036;28;21124;-67
2022/07/03 16:39:08;;;;;;;1.00;1.00;;;28.80;69.50;;;;;;4933544;29;20970;-67
2022/07/03 16:41:37;;;;;;;1.37;1.33;;;29.00;70.10;;;;;;4933178;29;20465;-67
2022/07/03 16:44:07;;;;;;;1.40;1.40;;;29.20;69.50;;;;;;4953877;28;20535;-68
2022/07/03 16:46:41;;;;;;;1.27;1.27;;;29.20;69.60;;;;;;4963699;28;20483;-66
2022/07/03 16:49:09;;;;;;;1.73;1.40;;;29.20;66.60;;;;;;4952979;29;20800;-67
2022/07/03 16:51:36;;;;;;;1.10;1.10;;;29.20;67.10;;;;;;4952334;29;20473;-67
2022/07/03 16:54:04;;;;;;;1.40;1.40;;;29.30;66.10;;;;;;4933747;29;20462;-67
2022/07/03 16:56:32;;;;;;;1.40;1.40;;;29.30;67.70;;;;;;4950254;28;20492;-67
2022/07/03 16:58:59;;;;;;;1.77;1.67;;;28.70;76.40;;;;;;4965484;28;20523;-67
2022/07/03 17:01:28;;;;;;;1.80;1.70;;;28.00;81.00;;;;;;4964426;28;20469;-66
2022/07/03 17:03:57;;;;;;;1.30;1.30;;;27.30;83.70;;;;;;4952751;29;20476;-67
2022/07/03 17:06:24;;;;;;;2.20;2.00;;;26.70;86.70;;;;;;4947343;29;20556;-67
2022/07/03 17:08:51;;;;;;;1.93;1.80;;;26.40;89.30;;;;;;4941700;28;20996;-67
2022/07/03 17:11:18;;;;;;;1.80;1.70;;;26.00;90.50;;;;;;4958533;28;20824;-66
2022/07/03 17:13:45;;;;;;;1.60;1.50;;;25.70;90.70;;;;;;4952498;29;20471;-67
2022/07/03 17:16:12;;;;;;;2.33;2.13;;;25.20;91.30;;;;;;4949279;29;20524;-69
2022/07/03 17:18:48;;;;;;;5.80;1.87;;;24.80;92.20;;;;;;4933256;29;20465;-67